Share

Skillinge, Sweden

Ostra Herrestad (ISKNEGRS2) Elev 144 ft | 55.52 °N, 14.17 °E | Change Station

Current weather conditions updated 3 seconds ago

Clear
Clear
53.8 °F
Feels Like 53.8 °F
N
9.0
Wind Variable Wind from ENE
Gusts 10.4 mph
Sunrise 5:49 AM
Sunset 8:15 PM
Moon Waning Gibbous

Tomorrow is forecast to be Much Cooler than today.

Pressure 30.21 in
Visibility 6.2 miles
Clouds
Dew Point 38 °F
Humidity 56%
Rainfall 0.00 in
Snow Depth Not available.
UV 0.0 out of 16
Pollen Not available.
Air Quality Not available.
Flu Activity Not available.
METAR ESMK 191550Z AUTO 12008KT 9999NDV NCD 15/05 Q1023

More Conditions Fewer Conditions

Pressure 30.21 in
Visibility 6.2 miles
Clouds
Dew Point 38 °F
Humidity 56%
Rainfall 0.00 in
Snow Depth Not available.
UV 0.0 out of 16
Pollen Not available.
Air Quality Not available.
Flu Activity Not available.
METAR ESMK 191550Z AUTO 12008KT 9999NDV NCD 15/05 Q1023

More Conditions Fewer Conditions

10-Day Weather Forecast

Almanac

Astronomy

Apr. 19, 2014 Rise Set
Actual Time 5:49 AM CEST 8:15 PM CEST
Civil Twilight 5:08 AM CEST 8:56 PM CEST
Nautical Twilight 4:16 AM CEST 9:48 PM CEST
Astronomical Twilight 3:13 AM CEST 10:54 PM CEST
Moon 12:07 AM CEST 8:25 AM CEST
Length of Visible Light 15h 47m
Length of Day
14h 26m
Tomorrow will be 4m 25s longer.
Waning Gibbous, 79% of the Moon is Illuminated
Today
Waning Gibbous
Apr 22
Last Quarter
Apr 29
New
May 6
First Quarter
May 14
Full

Today's Extremes

Country Highs Country Lows

Community

  • A Glorious Morning
    A Glorious Morning
  • Tender Rays Of Hope
    Tender Rays Of Hope
  • Bleeding Hearts
    Bleeding Hearts
  • Sunset Silhouettes
    Sunset Silhouettes
  • FL sunset Perico Isle
    FL sunset Perico Isle

WunderPhotos

Upload Photos

1,702,776 photos uploaded!

WunderBlogs® & News

Nearby

Snow Depth

Not available.

Coastal Water Temperatures

Place Temperature
No Stations Reporting

Earthquake Activity

City Distance Mag. Time & Date
No recent earthquake activity has been reported nearby.
Minimum magnitude displayed is 2.5.

Nearby Weather Stations

Station Location Temp. Dew Point Humidity Wind Precip. Elev Updated Type
Ostra Herrestad, Gärsnäs 53.8 °F 38 °F 56% ENE  at  9.0 mph 0.00 in / hr 144 ft 6:11 PM CEST Rapid Fire
Tomelilla 56.7 °F 37 °F 48% East  at  6.0 mph 0.00 in / hr 246 ft 6:11 PM CEST Rapid Fire
Klasarod, Klasarod 57.6 °F 35 °F 42% ENE  at  6.3 mph 0.00 in / hr 292 ft 6:11 PM CEST Normal

Show More Stations Show Fewer Stations

What do you think?

We're not finished. Please let us know what you like, what you don't like, and what you are still missing.